메인 페이지
METAR-TAF:

METAR-TAF

공항 :

Lawson Army Airfield

콜럼버스, 조지아, 미국

위도: 32-20N, 경도: 084-50W, 고도: 71m

현재 날씨관측

예보는 12분 전, 01:08시(UTC)에 발표되었습니다.
4kt
온도 21°C
습도 100%
기압 1009 hPa
시정: 16.1km
고도 12000ft 상공 구름 조금

METAR: KLSF 220108Z AUTO 17004KT 10SM FEW120 21/21 A2981 RMK AO2 LTG DSNT NW-N AND SE-S RAB0056E08 PRESFR SLP098 $

시각: 21:20 (01:20 UTC)

예보

예보는 20분 전, 01:00시(UTC)에 발표되었습니다.
예보 대상 시간: 21일 01시부터 22일 07시까지 (UTC)
여러 방향의 바람 6kt
시정 10km 이상
고도 4000ft 상공 구름 조금
고도 8000ft 상공 구름 보통
전환 중
21일 11시부터 21일 12시까지 (UTC)
남서9kt
시정: 8000m
고도 2000ft 상공 구름 많음, 적란운.
고도 6000ft 상공 흐림
약한소나기, 시계 내 뇌우
전환 중
21일 14시부터 21일 15시까지 (UTC)
서남서9kt
시정 10km 이상
고도 5000ft 상공 구름 보통
일시적
21일 22시부터 22일 03시까지 (UTC)
여러 방향의 바람 15kt, 순간 최대 풍속 25kt
시정: 4800m
고도 3000ft 상공 구름 많음, 적란운.
뇌우, 약한비
전환 중
22일 02시부터 22일 03시까지 (UTC)
남남서6kt
시정: 2301m
고도 3000ft 상공 구름 많음

TAF: KLSF 210100Z 2101/2207 VRB06KT 9999 FEW040 SCT080 QNH2986INS BECMG 2111/2112 22009KT 8000 -SHRA VCTS BKN020CB OVC060 QNH2988INS BECMG 2114/2115 25009KT 9999 NSW SCT050 QNH2980INS TEMPO 2122/2203 VRB15G25KT 4800 -TSRA BKN030CB BECMG 2202/2203 20006KT 9999 BKN030 QNH2978INS TX34/2120Z TN23/2111Z LAST NO AMDS AFT 2103 NEXT 2301

4,000개 이상의 공항 관측 자료 및 예보 (METAR 및 TAF 보고).

지도상에서 검색 가능한 기상관측소가 노란 점과 빨간 점으로 표시되어 있습니다.

기상관측소 명을 보려면 표시 위로 마우스를 이동하세요.

날씨 관측과 예보를 보려면 클릭하세요.

지도 변경 : 확대하려면 엑스 표시가 있는 녹색 버튼, 축소하려면 빼기 표시가 있는 녹색 버튼, 다음 페이지의 지도를 보려면 녹색 화살표를 클릭하세요.


METAR-TAF: